ENY3691 KLBB-KDFW
Flight info
| Callsign | ENY3691 |
|---|---|
| Flight time | 0h 47m |
| Altitude | 31000 |
| Route | HNKER VKTRY2 |
| Aircraft | E170/M-SDE3GILORVW/S |
Departure
| Time | 2026-04-14 15:08 |
|---|---|
| Airport | Lubbock Preston Smith International Airport (KLBB) |
Arrival
| Time | 2026-04-14 15:55 |
|---|---|
| Airport | Dallas Fort Worth International Airport (KDFW) |
| Time | Latitude | Longitude | Altitude | Speed | Heading |
|---|---|---|---|---|---|
| 2026-04-14 14:58 | 33.65741 | -101.82072 | 3258 ft | 0 kts | 181° |
| 2026-04-14 14:59 | 33.65749 | -101.82071 | 3258 ft | 2 kts | 181° |
| 2026-04-14 14:59 | 33.65763 | -101.82071 | 3258 ft | 2 kts | 181° |
| 2026-04-14 14:59 | 33.65778 | -101.82071 | 3258 ft | 2 kts | 181° |
| 2026-04-14 14:59 | 33.65793 | -101.82070 | 3258 ft | 2 kts | 181° |
| 2026-04-14 15:00 | 33.65806 | -101.82070 | 3258 ft | 1 kts | 199° |
| 2026-04-14 15:00 | 33.65813 | -101.82062 | 3258 ft | 1 kts | 258° |
| 2026-04-14 15:00 | 33.65814 | -101.82055 | 3258 ft | 0 kts | 268° |
| 2026-04-14 15:00 | 33.65813 | -101.82056 | 3258 ft | 0 kts | 268° |
| 2026-04-14 15:01 | 33.65813 | -101.82062 | 3258 ft | 1 kts | 268° |
| 2026-04-14 15:02 | 33.65813 | -101.82089 | 3258 ft | 4 kts | 269° |
| 2026-04-14 15:02 | 33.65810 | -101.82142 | 3258 ft | 8 kts | 268° |
| 2026-04-14 15:02 | 33.65803 | -101.82227 | 3257 ft | 11 kts | 253° |
| 2026-04-14 15:02 | 33.65822 | -101.82313 | 3257 ft | 12 kts | 325° |
| 2026-04-14 15:03 | 33.65898 | -101.82363 | 3257 ft | 12 kts | 340° |
| 2026-04-14 15:03 | 33.65986 | -101.82385 | 3257 ft | 13 kts | 354° |
| 2026-04-14 15:03 | 33.66025 | -101.82466 | 3256 ft | 12 kts | 271° |
| 2026-04-14 15:03 | 33.66027 | -101.82584 | 3256 ft | 15 kts | 273° |
| 2026-04-14 15:04 | 33.66074 | -101.82692 | 3255 ft | 17 kts | 349° |
| 2026-04-14 15:04 | 33.66199 | -101.82695 | 3256 ft | 18 kts | 359° |
| 2026-04-14 15:04 | 33.66336 | -101.82696 | 3257 ft | 20 kts | 359° |
| 2026-04-14 15:04 | 33.66487 | -101.82696 | 3258 ft | 22 kts | 358° |
| 2026-04-14 15:05 | 33.66650 | -101.82698 | 3259 ft | 24 kts | 0° |
| 2026-04-14 15:05 | 33.66826 | -101.82698 | 3261 ft | 26 kts | 358° |
| 2026-04-14 15:05 | 33.67016 | -101.82702 | 3263 ft | 27 kts | 359° |
| 2026-04-14 15:05 | 33.67206 | -101.82701 | 3267 ft | 26 kts | 2° |
| 2026-04-14 15:06 | 33.67387 | -101.82703 | 3270 ft | 25 kts | 1° |
| 2026-04-14 15:06 | 33.67561 | -101.82703 | 3273 ft | 24 kts | 0° |
| 2026-04-14 15:06 | 33.67727 | -101.82705 | 3276 ft | 23 kts | 359° |
| 2026-04-14 15:06 | 33.67887 | -101.82709 | 3279 ft | 22 kts | 358° |
| 2026-04-14 15:07 | 33.68040 | -101.82708 | 3281 ft | 21 kts | 359° |
| 2026-04-14 15:07 | 33.68130 | -101.82774 | 3282 ft | 16 kts | 268° |
| 2026-04-14 15:07 | 33.68109 | -101.82908 | 3282 ft | 13 kts | 211° |
| 2026-04-14 15:07 | 33.67952 | -101.82906 | 3280 ft | 51 kts | 181° |
| 2026-04-14 15:08 | 33.67358 | -101.82896 | 3270 ft | 117 kts | 180° |
| 2026-04-14 15:08 | 33.66352 | -101.82886 | 3289 ft | 164 kts | 181° |
| 2026-04-14 15:08 | 33.65191 | -101.82843 | 3779 ft | 173 kts | 180° |
| 2026-04-14 15:08 | 33.63983 | -101.82782 | 4490 ft | 174 kts | 181° |
| 2026-04-14 15:09 | 33.62839 | -101.82668 | 5195 ft | 172 kts | 180° |
| 2026-04-14 15:09 | 33.61517 | -101.82553 | 5321 ft | 204 kts | 181° |
| 2026-04-14 15:09 | 33.60003 | -101.82443 | 5523 ft | 231 kts | 181° |
| 2026-04-14 15:09 | 33.58335 | -101.82329 | 5599 ft | 243 kts | 179° |
| 2026-04-14 15:10 | 33.56734 | -101.81536 | 6026 ft | 263 kts | 140° |
| 2026-04-14 15:10 | 33.55815 | -101.79636 | 6770 ft | 277 kts | 106° |
| 2026-04-14 15:10 | 33.55882 | -101.77283 | 7186 ft | 298 kts | 71° |
| 2026-04-14 15:10 | 33.56961 | -101.75156 | 7716 ft | 309 kts | 51° |
| 2026-04-14 15:11 | 33.58322 | -101.73146 | 8353 ft | 314 kts | 50° |
| 2026-04-14 15:11 | 33.59571 | -101.70989 | 9024 ft | 317 kts | 64° |
| 2026-04-14 15:11 | 33.60354 | -101.68535 | 9688 ft | 318 kts | 75° |
| 2026-04-14 15:11 | 33.60890 | -101.65966 | 10347 ft | 320 kts | 80° |
| 2026-04-14 15:12 | 33.61319 | -101.63340 | 10920 ft | 325 kts | 82° |
| 2026-04-14 15:12 | 33.61709 | -101.60632 | 11400 ft | 334 kts | 83° |
| 2026-04-14 15:12 | 33.62088 | -101.57855 | 11850 ft | 344 kts | 83° |
| 2026-04-14 15:12 | 33.62472 | -101.54968 | 12326 ft | 352 kts | 84° |
| 2026-04-14 15:13 | 33.62854 | -101.52068 | 12879 ft | 356 kts | 84° |
| 2026-04-14 15:13 | 33.63239 | -101.49126 | 13469 ft | 359 kts | 84° |
| 2026-04-14 15:13 | 33.63627 | -101.46156 | 14019 ft | 363 kts | 84° |
| 2026-04-14 15:13 | 33.64019 | -101.43141 | 14542 ft | 368 kts | 84° |
| 2026-04-14 15:14 | 33.64417 | -101.40077 | 15045 ft | 373 kts | 84° |
| 2026-04-14 15:14 | 33.64817 | -101.36984 | 15546 ft | 378 kts | 85° |
| 2026-04-14 15:14 | 33.65227 | -101.33821 | 16026 ft | 383 kts | 85° |
| 2026-04-14 15:14 | 33.65635 | -101.30656 | 16502 ft | 388 kts | 85° |
| 2026-04-14 15:15 | 33.66055 | -101.27401 | 16981 ft | 392 kts | 85° |
| 2026-04-14 15:15 | 33.66468 | -101.24184 | 17446 ft | 396 kts | 85° |
| 2026-04-14 15:15 | 33.66891 | -101.20886 | 17894 ft | 401 kts | 85° |
| 2026-04-14 15:15 | 33.67314 | -101.17583 | 18374 ft | 404 kts | 85° |
| 2026-04-14 15:16 | 33.67741 | -101.14243 | 18909 ft | 405 kts | 85° |
| 2026-04-14 15:16 | 33.68162 | -101.10936 | 19427 ft | 406 kts | 85° |
| 2026-04-14 15:16 | 33.68591 | -101.07564 | 19924 ft | 408 kts | 85° |
| 2026-04-14 15:16 | 33.69016 | -101.04214 | 20392 ft | 410 kts | 85° |
| 2026-04-14 15:17 | 33.69442 | -101.00847 | 20851 ft | 412 kts | 85° |
| 2026-04-14 15:17 | 33.69875 | -100.97420 | 21302 ft | 414 kts | 85° |
| 2026-04-14 15:17 | 33.70305 | -100.94006 | 21733 ft | 417 kts | 85° |
| 2026-04-14 15:17 | 33.70737 | -100.90576 | 22156 ft | 419 kts | 85° |
| 2026-04-14 15:18 | 33.71168 | -100.87131 | 22555 ft | 422 kts | 85° |
| 2026-04-14 15:18 | 33.71604 | -100.83656 | 22975 ft | 423 kts | 85° |
| 2026-04-14 15:18 | 33.72039 | -100.80162 | 23399 ft | 425 kts | 85° |
| 2026-04-14 15:18 | 33.72477 | -100.76649 | 23769 ft | 429 kts | 85° |
| 2026-04-14 15:19 | 33.72916 | -100.73111 | 24128 ft | 432 kts | 85° |
| 2026-04-14 15:19 | 33.73360 | -100.69537 | 24477 ft | 435 kts | 85° |
| 2026-04-14 15:19 | 33.73804 | -100.65937 | 24814 ft | 439 kts | 85° |
| 2026-04-14 15:19 | 33.74253 | -100.62302 | 25133 ft | 442 kts | 85° |
| 2026-04-14 15:20 | 33.74703 | -100.58651 | 25497 ft | 445 kts | 85° |
| 2026-04-14 15:20 | 33.75157 | -100.54947 | 25833 ft | 447 kts | 85° |
| 2026-04-14 15:20 | 33.75606 | -100.51277 | 26149 ft | 450 kts | 85° |
| 2026-04-14 15:20 | 33.76062 | -100.47539 | 26449 ft | 454 kts | 85° |
| 2026-04-14 15:21 | 33.76521 | -100.43775 | 26741 ft | 457 kts | 85° |
| 2026-04-14 15:21 | 33.76975 | -100.40041 | 27055 ft | 459 kts | 85° |
| 2026-04-14 15:21 | 33.77434 | -100.36247 | 27343 ft | 462 kts | 85° |
| 2026-04-14 15:21 | 33.78083 | -100.32446 | 27638 ft | 468 kts | 77° |
| 2026-04-14 15:22 | 33.78977 | -100.28641 | 27902 ft | 471 kts | 77° |
| 2026-04-14 15:22 | 33.79853 | -100.24847 | 28200 ft | 472 kts | 77° |
| 2026-04-14 15:22 | 33.80724 | -100.21044 | 28466 ft | 475 kts | 78° |
| 2026-04-14 15:22 | 33.81598 | -100.17210 | 28728 ft | 478 kts | 78° |
| 2026-04-14 15:23 | 33.82476 | -100.13361 | 28963 ft | 481 kts | 77° |
| 2026-04-14 15:23 | 33.83366 | -100.09446 | 29211 ft | 483 kts | 77° |
| 2026-04-14 15:23 | 33.84243 | -100.05585 | 29492 ft | 485 kts | 77° |
| 2026-04-14 15:23 | 33.85139 | -100.01638 | 29739 ft | 488 kts | 77° |
| 2026-04-14 15:24 | 33.86027 | -99.97712 | 29977 ft | 490 kts | 77° |
| 2026-04-14 15:24 | 33.86916 | -99.93781 | 30244 ft | 491 kts | 77° |
| 2026-04-14 15:24 | 33.87808 | -99.89829 | 30534 ft | 492 kts | 77° |
| 2026-04-14 15:24 | 33.88704 | -99.85850 | 30746 ft | 495 kts | 77° |
| 2026-04-14 15:25 | 33.89600 | -99.81869 | 30947 ft | 491 kts | 77° |
| 2026-04-14 15:25 | 33.90496 | -99.77877 | 30979 ft | 494 kts | 77° |
| 2026-04-14 15:25 | 33.92292 | -99.69855 | 30989 ft | 508 kts | 77° |
| 2026-04-14 15:26 | 33.94152 | -99.61528 | 30991 ft | 521 kts | 77° |
| 2026-04-14 15:26 | 33.95686 | -99.52959 | 30987 ft | 525 kts | 89° |
| 2026-04-14 15:27 | 33.95426 | -99.44318 | 30988 ft | 520 kts | 103° |
| 2026-04-14 15:27 | 33.93399 | -99.36159 | 30995 ft | 501 kts | 121° |
| 2026-04-14 15:28 | 33.90759 | -99.28382 | 30977 ft | 503 kts | 117° |
| 2026-04-14 15:28 | 33.88302 | -99.20558 | 30972 ft | 502 kts | 117° |
| 2026-04-14 15:29 | 33.85860 | -99.12765 | 30980 ft | 496 kts | 117° |
| 2026-04-14 15:29 | 33.83420 | -99.04997 | 30397 ft | 490 kts | 117° |
| 2026-04-14 15:30 | 33.82233 | -99.01223 | 29888 ft | 482 kts | 117° |
| 2026-04-14 15:30 | 33.81058 | -98.97494 | 29377 ft | 476 kts | 117° |
| 2026-04-14 15:30 | 33.79885 | -98.93777 | 28861 ft | 470 kts | 117° |
| 2026-04-14 15:30 | 33.78741 | -98.90157 | 28350 ft | 467 kts | 117° |
| 2026-04-14 15:31 | 33.77601 | -98.86551 | 27843 ft | 462 kts | 117° |
| 2026-04-14 15:31 | 33.76458 | -98.82939 | 27337 ft | 457 kts | 117° |
| 2026-04-14 15:31 | 33.75342 | -98.79420 | 26828 ft | 452 kts | 117° |
| 2026-04-14 15:31 | 33.74222 | -98.75893 | 26363 ft | 447 kts | 117° |
| 2026-04-14 15:32 | 33.73100 | -98.72387 | 25905 ft | 444 kts | 117° |
| 2026-04-14 15:32 | 33.72003 | -98.68961 | 25423 ft | 440 kts | 117° |
| 2026-04-14 15:32 | 33.70900 | -98.65523 | 24938 ft | 435 kts | 116° |
| 2026-04-14 15:32 | 33.69820 | -98.62158 | 24464 ft | 431 kts | 116° |
| 2026-04-14 15:33 | 33.68750 | -98.58797 | 24090 ft | 429 kts | 116° |
| 2026-04-14 15:33 | 33.67690 | -98.55447 | 23604 ft | 426 kts | 116° |
| 2026-04-14 15:33 | 33.66649 | -98.52159 | 23151 ft | 422 kts | 116° |
| 2026-04-14 15:33 | 33.65601 | -98.48854 | 22685 ft | 417 kts | 116° |
| 2026-04-14 15:34 | 33.64582 | -98.45644 | 22232 ft | 413 kts | 116° |
| 2026-04-14 15:34 | 33.63552 | -98.42402 | 21777 ft | 412 kts | 115° |
| 2026-04-14 15:34 | 33.62540 | -98.39221 | 21320 ft | 409 kts | 115° |
| 2026-04-14 15:34 | 33.61518 | -98.36011 | 20870 ft | 406 kts | 115° |
| 2026-04-14 15:35 | 33.60510 | -98.32848 | 20414 ft | 402 kts | 116° |
| 2026-04-14 15:35 | 33.59509 | -98.29710 | 19975 ft | 399 kts | 116° |
| 2026-04-14 15:35 | 33.58513 | -98.26591 | 19534 ft | 395 kts | 116° |
| 2026-04-14 15:35 | 33.57529 | -98.23515 | 19095 ft | 392 kts | 116° |
| 2026-04-14 15:36 | 33.56557 | -98.20474 | 18674 ft | 389 kts | 116° |
| 2026-04-14 15:36 | 33.55576 | -98.17426 | 18306 ft | 386 kts | 116° |
| 2026-04-14 15:36 | 33.54617 | -98.14446 | 17887 ft | 381 kts | 116° |
| 2026-04-14 15:36 | 33.53672 | -98.11510 | 17471 ft | 369 kts | 116° |
| 2026-04-14 15:37 | 33.52754 | -98.08662 | 17069 ft | 361 kts | 116° |
| 2026-04-14 15:37 | 33.51839 | -98.05830 | 16668 ft | 359 kts | 116° |
| 2026-04-14 15:37 | 33.50931 | -98.03024 | 16270 ft | 359 kts | 116° |
| 2026-04-14 15:37 | 33.50035 | -98.00256 | 15881 ft | 356 kts | 116° |
| 2026-04-14 15:38 | 33.49145 | -97.97503 | 15486 ft | 353 kts | 116° |
| 2026-04-14 15:38 | 33.48247 | -97.94732 | 15092 ft | 349 kts | 116° |
| 2026-04-14 15:38 | 33.47368 | -97.92020 | 14730 ft | 345 kts | 116° |
| 2026-04-14 15:38 | 33.46499 | -97.89318 | 14393 ft | 345 kts | 116° |
| 2026-04-14 15:39 | 33.45637 | -97.86639 | 14015 ft | 343 kts | 116° |
| 2026-04-14 15:39 | 33.44781 | -97.83978 | 13631 ft | 338 kts | 116° |
| 2026-04-14 15:39 | 33.43945 | -97.81379 | 13255 ft | 326 kts | 116° |
| 2026-04-14 15:39 | 33.43139 | -97.78876 | 12893 ft | 315 kts | 116° |
| 2026-04-14 15:40 | 33.42364 | -97.76473 | 12554 ft | 307 kts | 116° |
| 2026-04-14 15:40 | 33.41583 | -97.74058 | 12228 ft | 306 kts | 115° |
| 2026-04-14 15:40 | 33.40818 | -97.71692 | 11894 ft | 306 kts | 115° |
| 2026-04-14 15:40 | 33.40043 | -97.69295 | 11551 ft | 305 kts | 115° |
| 2026-04-14 15:41 | 33.39276 | -97.66926 | 11219 ft | 304 kts | 115° |
| 2026-04-14 15:41 | 33.38505 | -97.64597 | 10883 ft | 301 kts | 121° |
| 2026-04-14 15:41 | 33.37356 | -97.62517 | 10571 ft | 295 kts | 130° |
| 2026-04-14 15:41 | 33.36129 | -97.60513 | 10225 ft | 294 kts | 130° |
| 2026-04-14 15:42 | 33.34923 | -97.58547 | 9910 ft | 292 kts | 130° |
| 2026-04-14 15:42 | 33.33712 | -97.56576 | 9589 ft | 291 kts | 129° |
| 2026-04-14 15:42 | 33.32529 | -97.54653 | 9275 ft | 290 kts | 129° |
| 2026-04-14 15:42 | 33.31318 | -97.52686 | 8951 ft | 289 kts | 129° |
| 2026-04-14 15:43 | 33.30129 | -97.50756 | 8627 ft | 288 kts | 129° |
| 2026-04-14 15:43 | 33.28928 | -97.48809 | 8247 ft | 287 kts | 129° |
| 2026-04-14 15:43 | 33.27754 | -97.46881 | 7918 ft | 286 kts | 124° |
| 2026-04-14 15:43 | 33.27159 | -97.44614 | 7664 ft | 291 kts | 98° |
| 2026-04-14 15:44 | 33.27011 | -97.42186 | 7358 ft | 290 kts | 96° |
| 2026-04-14 15:44 | 33.26883 | -97.39814 | 7031 ft | 282 kts | 96° |
| 2026-04-14 15:44 | 33.26761 | -97.37513 | 6720 ft | 274 kts | 96° |
| 2026-04-14 15:44 | 33.26644 | -97.35279 | 6423 ft | 267 kts | 96° |
| 2026-04-14 15:45 | 33.26526 | -97.33048 | 6126 ft | 265 kts | 97° |
| 2026-04-14 15:45 | 33.26411 | -97.30862 | 5839 ft | 265 kts | 97° |
| 2026-04-14 15:45 | 33.26295 | -97.28649 | 5548 ft | 266 kts | 97° |
| 2026-04-14 15:45 | 33.26178 | -97.26455 | 5256 ft | 264 kts | 97° |
| 2026-04-14 15:46 | 33.25998 | -97.24275 | 4956 ft | 259 kts | 111° |
| 2026-04-14 15:46 | 33.25394 | -97.22285 | 4985 ft | 253 kts | 116° |
| 2026-04-14 15:46 | 33.24754 | -97.20301 | 4985 ft | 255 kts | 116° |
| 2026-04-14 15:46 | 33.24099 | -97.18285 | 4989 ft | 256 kts | 115° |
| 2026-04-14 15:47 | 33.23445 | -97.16275 | 4988 ft | 256 kts | 116° |
| 2026-04-14 15:47 | 33.22805 | -97.14314 | 4986 ft | 255 kts | 116° |
| 2026-04-14 15:47 | 33.22153 | -97.12317 | 4986 ft | 256 kts | 116° |
| 2026-04-14 15:47 | 33.21504 | -97.10330 | 4989 ft | 255 kts | 116° |
| 2026-04-14 15:48 | 33.20852 | -97.08338 | 4990 ft | 256 kts | 116° |
| 2026-04-14 15:48 | 33.20029 | -97.06506 | 4985 ft | 247 kts | 141° |
| 2026-04-14 15:48 | 33.18538 | -97.05609 | 5057 ft | 235 kts | 175° |
| 2026-04-14 15:48 | 33.16973 | -97.05338 | 5194 ft | 218 kts | 177° |
| 2026-04-14 15:49 | 33.15484 | -97.05316 | 5142 ft | 215 kts | 184° |
| 2026-04-14 15:49 | 33.13991 | -97.05338 | 4886 ft | 211 kts | 184° |
| 2026-04-14 15:49 | 33.12514 | -97.05353 | 4622 ft | 209 kts | 184° |
| 2026-04-14 15:49 | 33.11069 | -97.05364 | 4351 ft | 205 kts | 183° |
| 2026-04-14 15:50 | 33.09670 | -97.05372 | 4082 ft | 198 kts | 183° |
| 2026-04-14 15:50 | 33.08310 | -97.05379 | 3817 ft | 192 kts | 183° |
| 2026-04-14 15:50 | 33.06977 | -97.05386 | 3561 ft | 186 kts | 183° |
| 2026-04-14 15:50 | 33.05710 | -97.05392 | 3308 ft | 173 kts | 183° |
| 2026-04-14 15:51 | 33.04592 | -97.05396 | 3127 ft | 149 kts | 184° |
| 2026-04-14 15:51 | 33.03630 | -97.05401 | 2927 ft | 129 kts | 184° |
| 2026-04-14 15:51 | 33.02782 | -97.05405 | 2718 ft | 116 kts | 184° |
| 2026-04-14 15:51 | 33.01979 | -97.05411 | 2580 ft | 114 kts | 184° |
| 2026-04-14 15:52 | 33.01217 | -97.05416 | 2450 ft | 116 kts | 183° |
| 2026-04-14 15:52 | 33.00405 | -97.05420 | 2310 ft | 116 kts | 183° |
| 2026-04-14 15:52 | 32.99578 | -97.05424 | 2157 ft | 116 kts | 183° |
| 2026-04-14 15:52 | 32.98764 | -97.05428 | 2004 ft | 116 kts | 182° |
| 2026-04-14 15:53 | 32.97950 | -97.05433 | 1853 ft | 118 kts | 182° |
| 2026-04-14 15:53 | 32.97145 | -97.05437 | 1693 ft | 117 kts | 182° |
| 2026-04-14 15:53 | 32.96318 | -97.05441 | 1540 ft | 118 kts | 181° |
| 2026-04-14 15:53 | 32.95497 | -97.05445 | 1383 ft | 118 kts | 181° |
| 2026-04-14 15:54 | 32.93814 | -97.05454 | 1075 ft | 121 kts | 181° |
| 2026-04-14 15:54 | 32.92966 | -97.05460 | 916 ft | 122 kts | 181° |
| 2026-04-14 15:54 | 32.92112 | -97.05460 | 741 ft | 122 kts | 181° |
| 2026-04-14 15:55 | 32.91238 | -97.05464 | 611 ft | 122 kts | 181° |
| 2026-04-14 15:55 | 32.90513 | -97.05467 | 613 ft | 81 kts | 179° |
| 2026-04-14 15:55 | 32.89990 | -97.05473 | 610 ft | 67 kts | 178° |
| 2026-04-14 15:55 | 32.89622 | -97.05423 | 603 ft | 36 kts | 155° |
| 2026-04-14 15:56 | 32.89473 | -97.05329 | 599 ft | 17 kts | 150° |
| 2026-04-14 15:56 | 32.89431 | -97.05300 | 598 ft | 0 kts | 149° |
| 2026-04-14 15:56 | 32.89426 | -97.05296 | 598 ft | 2 kts | 148° |
| 2026-04-14 15:56 | 32.89404 | -97.05268 | 598 ft | 6 kts | 115° |
| 2026-04-14 15:57 | 32.89402 | -97.05202 | 597 ft | 10 kts | 90° |
| 2026-04-14 15:57 | 32.89403 | -97.05096 | 597 ft | 14 kts | 89° |
| 2026-04-14 15:57 | 32.89403 | -97.04954 | 596 ft | 16 kts | 89° |
| 2026-04-14 15:57 | 32.89400 | -97.04813 | 595 ft | 14 kts | 86° |
| 2026-04-14 15:58 | 32.89487 | -97.04768 | 596 ft | 17 kts | 359° |
| 2026-04-14 15:58 | 32.89620 | -97.04767 | 599 ft | 21 kts | 0° |
| 2026-04-14 15:58 | 32.89782 | -97.04768 | 601 ft | 25 kts | 1° |
| 2026-04-14 15:58 | 32.89965 | -97.04766 | 604 ft | 26 kts | 359° |
| 2026-04-14 15:59 | 32.90165 | -97.04765 | 605 ft | 30 kts | 1° |
| 2026-04-14 15:59 | 32.90344 | -97.04762 | 604 ft | 23 kts | 1° |
| 2026-04-14 15:59 | 32.90509 | -97.04763 | 603 ft | 22 kts | 0° |
| 2026-04-14 15:59 | 32.90611 | -97.04733 | 602 ft | 13 kts | 77° |
| 2026-04-14 16:00 | 32.90613 | -97.04620 | 600 ft | 14 kts | 60° |
| 2026-04-14 16:00 | 32.90655 | -97.04634 | 600 ft | 7 kts | 291° |
| 2026-04-14 16:00 | 32.90689 | -97.04668 | 600 ft | 6 kts | 16° |
| 2026-04-14 16:00 | 32.90706 | -97.04625 | 599 ft | 3 kts | 89° |
| 2026-04-14 16:01 | 32.90707 | -97.04617 | 599 ft | 0 kts | 89° |